createdAt,value
2022-09-06T00:00:13.857Z,100.00
2022-09-06T00:02:41.505Z,100.00
2022-09-06T00:05:09.756Z,100.00
2022-09-06T00:07:36.772Z,100.00
2022-09-06T00:10:07.715Z,100.00
2022-09-06T00:12:34.669Z,100.00
2022-09-06T00:15:02.415Z,100.00
2022-09-06T00:17:29.027Z,100.00
2022-09-06T00:20:51.463Z,100.00
2022-09-06T00:23:41.545Z,100.00
2022-09-06T00:26:08.073Z,100.00
2022-09-06T00:28:34.616Z,100.00
2022-09-06T00:35:12.016Z,100.00
2022-09-06T00:37:40.875Z,100.00
2022-09-06T00:40:10.992Z,100.00
2022-09-06T00:42:51.334Z,100.00
2022-09-06T00:45:36.284Z,100.00
2022-09-06T00:48:06.446Z,100.00
2022-09-06T00:51:05.899Z,100.00
2022-09-06T00:56:50.945Z,100.00
2022-09-06T00:59:24.787Z,100.00
2022-09-06T01:02:01.012Z,100.00
2022-09-06T01:04:42.682Z,100.00
2022-09-06T01:26:50.930Z,100.00
2022-09-06T01:29:37.711Z,100.00
2022-09-06T01:36:01.308Z,100.00
2022-09-06T01:38:30.529Z,100.00
2022-09-06T01:40:57.130Z,100.00
2022-09-06T01:43:33.511Z,100.00
2022-09-06T01:46:18.591Z,100.00
2022-09-06T01:56:44.780Z,100.00
2022-09-06T01:59:36.356Z,100.00
2022-09-06T02:02:09.531Z,100.00
2022-09-06T02:04:51.449Z,100.00
2022-09-06T02:07:23.093Z,100.00
2022-09-06T02:10:13.446Z,100.00
2022-09-06T02:12:43.501Z,100.00
2022-09-06T02:15:11.771Z,100.00
2022-09-06T02:17:50.644Z,100.00
2022-09-06T02:20:45.509Z,100.00
2022-09-06T02:23:16.563Z,100.00
2022-09-06T02:25:53.576Z,100.00
2022-09-06T02:28:21.626Z,100.00
2022-09-06T02:30:56.252Z,100.00
2022-09-06T02:33:35.946Z,100.00
2022-09-06T02:36:06.819Z,100.00
2022-09-06T02:38:39.487Z,100.00
2022-09-06T02:41:07.275Z,100.00
2022-09-06T02:43:34.256Z,100.00
2022-09-06T02:46:00.919Z,100.00
2022-09-06T02:48:27.697Z,100.00
2022-09-06T02:50:54.361Z,100.00
2022-09-06T02:53:21.077Z,100.00
2022-09-06T02:55:48.736Z,100.00
2022-09-06T02:58:15.512Z,100.00
2022-09-06T03:00:42.277Z,100.00
2022-09-06T03:03:08.853Z,100.00
2022-09-06T03:05:38.651Z,100.00
2022-09-06T03:08:05.758Z,100.00
2022-09-06T03:20:03.199Z,100.00
2022-09-06T03:22:30.106Z,100.00
2022-09-06T03:25:26.138Z,100.00
2022-09-06T03:27:52.773Z,100.00
2022-09-06T03:30:19.483Z,100.00
2022-09-06T03:32:46.036Z,100.00
2022-09-06T03:35:13.186Z,100.00
2022-09-06T03:37:39.722Z,100.00
2022-09-06T03:40:08.269Z,100.00
2022-09-06T03:42:34.875Z,100.00
2022-09-06T03:45:08.426Z,100.00
2022-09-06T03:47:34.984Z,100.00
2022-09-06T03:50:01.581Z,100.00
2022-09-06T03:52:28.145Z,100.00
2022-09-06T03:54:54.767Z,100.00
2022-09-06T03:57:21.371Z,100.00
2022-09-06T03:59:48.179Z,100.00
2022-09-06T04:02:14.812Z,100.00
2022-09-06T04:04:41.422Z,100.00
2022-09-06T04:07:08.065Z,100.00
2022-09-06T04:09:34.738Z,100.00
2022-09-06T04:12:01.370Z,100.00
2022-09-06T04:14:29.177Z,100.00
2022-09-06T04:16:56.325Z,100.00
2022-09-06T04:19:23.806Z,100.00
2022-09-06T04:21:50.401Z,100.00
2022-09-06T04:24:16.941Z,100.00
2022-09-06T04:26:43.946Z,100.00
2022-09-06T04:29:10.631Z,100.00
2022-09-06T04:31:45.528Z,100.00
2022-09-06T04:34:32.266Z,100.00
2022-09-06T04:44:27.869Z,100.00
2022-09-06T04:47:09.851Z,100.00
2022-09-06T04:49:36.392Z,100.00
2022-09-06T04:52:03.098Z,100.00
2022-09-06T04:54:29.657Z,100.00
2022-09-06T04:56:56.169Z,100.00
2022-09-06T04:59:22.765Z,100.00
2022-09-06T05:01:49.363Z,100.00
2022-09-06T05:04:16.750Z,100.00
2022-09-06T05:06:43.806Z,100.00
2022-09-06T05:19:42.292Z,100.00
2022-09-06T05:26:00.355Z,97.89
2022-09-06T05:28:29.945Z,94.71
2022-09-06T05:31:11.016Z,96.30
2022-09-06T05:33:38.180Z,90.83
2022-09-06T05:36:06.113Z,89.86
2022-09-06T05:38:33.148Z,87.32
2022-09-06T05:41:00.322Z,82.01
2022-09-06T05:43:26.829Z,77.17
2022-09-06T05:45:53.403Z,75.54
2022-09-06T05:48:20.021Z,71.18
2022-09-06T05:50:59.848Z,67.86
2022-09-06T05:53:26.248Z,70.52
2022-09-06T05:55:53.141Z,62.25
2022-09-06T05:58:19.704Z,60.34
2022-09-06T06:00:46.778Z,57.39
2022-09-06T06:03:29.280Z,56.33
2022-09-06T06:22:12.755Z,57.83
2022-09-06T06:24:39.789Z,58.29
2022-09-06T06:27:06.333Z,55.58
2022-09-06T06:29:32.878Z,57.74
2022-09-06T06:32:00.773Z,55.27
2022-09-06T06:34:27.413Z,53.03
2022-09-06T06:36:54.191Z,53.83
2022-09-06T06:46:41.699Z,49.56
2022-09-06T06:49:08.182Z,49.06
2022-09-06T06:51:37.355Z,50.82
2022-09-06T06:54:04.263Z,49.52
2022-09-06T07:00:16.722Z,49.94
2022-09-06T07:06:18.481Z,47.86
2022-09-06T07:12:12.910Z,44.80
2022-09-06T07:18:01.508Z,43.59
2022-09-06T07:20:28.010Z,43.60
2022-09-06T07:29:10.016Z,43.28
2022-09-06T07:37:53.944Z,41.58
2022-09-06T07:40:24.413Z,40.76
2022-09-06T07:42:50.977Z,40.69
2022-09-06T07:54:57.000Z,51.25
2022-09-06T08:09:55.276Z,66.16
2022-09-06T08:16:25.796Z,56.44
2022-09-06T08:22:25.921Z,41.74
2022-09-06T08:24:52.401Z,41.67
2022-09-06T08:27:18.801Z,41.73
2022-09-06T08:33:13.050Z,37.36
2022-09-06T08:39:13.961Z,38.78
2022-09-06T08:41:46.559Z,37.70
2022-09-06T08:47:08.169Z,35.34
2022-09-06T08:49:40.056Z,35.52
2022-09-06T08:55:53.723Z,34.84
2022-09-06T08:58:29.128Z,34.74
2022-09-06T09:04:50.744Z,33.21
2022-09-06T09:07:25.081Z,36.72
2022-09-06T09:13:20.526Z,36.17
2022-09-06T09:15:46.986Z,34.86
2022-09-06T09:29:01.764Z,31.14
2022-09-06T09:31:36.193Z,32.41
2022-09-06T09:51:28.166Z,36.97
2022-09-06T09:53:57.547Z,37.08
2022-09-06T10:01:09.870Z,41.00
2022-09-06T10:18:33.565Z,37.43
2022-09-06T10:25:32.240Z,41.83
2022-09-06T10:31:51.920Z,39.19
2022-09-06T10:38:17.879Z,38.60
2022-09-06T10:41:01.506Z,34.63
2022-09-06T10:47:43.557Z,36.18
2022-09-06T10:50:10.071Z,33.80
2022-09-06T10:56:49.755Z,31.43
2022-09-06T11:06:47.566Z,32.78
2022-09-06T11:09:27.830Z,31.77
2022-09-06T11:15:47.382Z,32.33
2022-09-06T11:22:38.762Z,31.48
2022-09-06T11:29:10.572Z,30.16
2022-09-06T11:43:15.743Z,30.34
2022-09-06T11:45:53.428Z,31.52
2022-09-06T11:52:01.049Z,31.88
2022-09-06T11:58:39.873Z,33.01
2022-09-06T12:05:07.493Z,30.51
2022-09-06T12:12:33.749Z,30.00
2022-09-06T12:30:32.532Z,32.95
2022-09-06T12:33:00.628Z,34.37
2022-09-06T12:50:35.393Z,32.16
2022-09-06T12:56:50.163Z,33.63
2022-09-06T12:59:24.971Z,33.78
2022-09-06T13:02:05.802Z,33.56
2022-09-06T13:20:16.805Z,32.82
2022-09-06T13:22:49.292Z,34.73
2022-09-06T13:39:38.570Z,39.76
2022-09-06T13:42:11.705Z,41.47
2022-09-06T13:52:53.469Z,37.92
2022-09-06T14:03:50.464Z,39.13
2022-09-06T14:09:47.957Z,38.13
2022-09-06T14:26:06.593Z,43.84
2022-09-06T14:28:36.610Z,45.33
2022-09-06T14:41:20.138Z,42.17
2022-09-06T14:55:05.556Z,42.50
2022-09-06T15:04:46.348Z,44.18
2022-09-06T15:07:19.744Z,44.45
2022-09-06T15:09:46.303Z,44.93
2022-09-06T15:12:13.366Z,45.01
2022-09-06T15:14:41.106Z,45.81
2022-09-06T15:17:08.978Z,45.27
2022-09-06T15:19:37.534Z,45.40
2022-09-06T15:22:05.843Z,44.74
2022-09-06T15:24:35.293Z,45.53
2022-09-06T15:27:01.915Z,47.73
2022-09-06T15:29:28.550Z,47.96
2022-09-06T15:31:57.847Z,47.15
2022-09-06T15:34:26.019Z,48.60
2022-09-06T15:36:53.498Z,49.03
2022-09-06T15:39:20.218Z,47.88
2022-09-06T15:41:46.713Z,48.30
2022-09-06T15:44:14.590Z,47.94
2022-09-06T15:46:47.135Z,47.18
2022-09-06T15:49:15.493Z,47.22
2022-09-06T15:51:42.238Z,46.31
2022-09-06T15:54:09.302Z,47.52
2022-09-06T15:56:36.468Z,47.73
2022-09-06T15:59:02.906Z,45.24
2022-09-06T16:01:29.498Z,46.75
2022-09-06T16:04:03.640Z,46.81
2022-09-06T16:06:31.469Z,46.45
2022-09-06T16:09:02.070Z,46.59
2022-09-06T16:11:30.068Z,49.91
2022-09-06T16:13:56.639Z,51.70
2022-09-06T16:16:26.366Z,52.49
2022-09-06T16:18:54.224Z,52.01
2022-09-06T16:21:23.970Z,53.69
2022-09-06T16:23:55.325Z,49.45
2022-09-06T16:26:22.818Z,50.10
2022-09-06T16:28:50.781Z,51.30
2022-09-06T16:31:18.007Z,50.69
2022-09-06T16:33:45.888Z,47.15
2022-09-06T16:36:13.901Z,48.42
2022-09-06T16:38:40.833Z,47.33
2022-09-06T16:41:12.319Z,46.98
2022-09-06T16:43:38.860Z,47.47
2022-09-06T16:46:05.542Z,48.47
2022-09-06T16:48:32.035Z,50.31
2022-09-06T16:51:07.454Z,50.27
2022-09-06T16:53:33.879Z,51.48
2022-09-06T16:56:02.299Z,51.90
2022-09-06T17:18:41.214Z,71.94
2022-09-06T17:21:08.173Z,74.95
2022-09-06T17:23:35.215Z,78.20
2022-09-06T17:26:03.420Z,81.30
2022-09-06T17:28:32.493Z,81.03
2022-09-06T17:31:00.857Z,84.09
2022-09-06T17:33:27.755Z,90.24
2022-09-06T17:35:54.174Z,93.83
2022-09-06T17:38:20.596Z,97.06
2022-09-06T17:40:56.424Z,99.14
2022-09-06T17:43:22.991Z,100.00
2022-09-06T17:45:49.598Z,100.00
2022-09-06T17:48:16.258Z,100.00
2022-09-06T17:50:43.233Z,100.00
2022-09-06T17:53:10.373Z,100.00
2022-09-06T17:55:41.440Z,100.00
2022-09-06T17:58:08.696Z,100.00
2022-09-06T18:00:40.149Z,100.00
2022-09-06T18:03:08.776Z,100.00
2022-09-06T18:05:42.924Z,100.00
2022-09-06T18:08:10.058Z,100.00
2022-09-06T18:10:37.904Z,100.00
2022-09-06T18:13:05.813Z,100.00
2022-09-06T18:15:37.981Z,100.00
2022-09-06T18:18:04.681Z,100.00
2022-09-06T18:20:31.280Z,100.00
2022-09-06T18:22:58.384Z,100.00
2022-09-06T18:25:24.994Z,100.00
2022-09-06T18:27:51.563Z,100.00
2022-09-06T18:30:18.101Z,100.00
2022-09-06T18:32:44.782Z,100.00
2022-09-06T18:35:11.396Z,100.00
2022-09-06T18:37:38.711Z,100.00
2022-09-06T18:40:06.343Z,100.00
2022-09-06T18:42:33.466Z,100.00
2022-09-06T18:45:02.825Z,100.00
2022-09-06T18:47:29.402Z,100.00
2022-09-06T18:49:55.949Z,100.00
2022-09-06T18:52:22.578Z,100.00
2022-09-06T18:54:49.415Z,100.00
2022-09-06T18:57:17.270Z,100.00
2022-09-06T18:59:44.639Z,100.00
2022-09-06T19:02:11.599Z,100.00
2022-09-06T19:04:38.366Z,100.00
2022-09-06T19:07:05.008Z,100.00
2022-09-06T19:09:31.586Z,100.00
2022-09-06T19:11:58.179Z,100.00
2022-09-06T19:14:24.848Z,100.00
2022-09-06T19:16:54.495Z,100.00
2022-09-06T19:19:24.808Z,100.00
2022-09-06T19:21:51.417Z,100.00
2022-09-06T19:24:18.122Z,100.00
2022-09-06T19:26:45.144Z,100.00
2022-09-06T19:29:17.582Z,100.00
2022-09-06T19:31:46.085Z,100.00
2022-09-06T19:34:15.427Z,100.00
2022-09-06T19:36:43.165Z,100.00
2022-09-06T19:39:14.291Z,100.00
2022-09-06T19:41:44.980Z,100.00
2022-09-06T19:44:11.930Z,100.00
2022-09-06T19:46:41.847Z,100.00
2022-09-06T19:49:14.713Z,100.00
2022-09-06T19:51:43.139Z,100.00
2022-09-06T19:54:09.734Z,100.00
2022-09-06T19:56:36.711Z,100.00
2022-09-06T19:59:05.698Z,100.00
2022-09-06T20:01:34.406Z,100.00
2022-09-06T20:04:02.790Z,100.00
2022-09-06T20:06:30.360Z,100.00
2022-09-06T20:08:58.485Z,100.00
2022-09-06T20:11:27.811Z,100.00
2022-09-06T20:13:54.914Z,100.00
2022-09-06T20:16:22.451Z,100.00
2022-09-06T20:18:49.130Z,100.00
2022-09-06T20:29:20.917Z,100.00
2022-09-06T20:35:35.213Z,100.00
2022-09-06T20:38:01.904Z,100.00
2022-09-06T20:40:28.496Z,100.00
2022-09-06T20:42:55.080Z,100.00
2022-09-06T20:45:25.280Z,100.00
2022-09-06T20:47:52.420Z,100.00
2022-09-06T20:50:19.190Z,100.00
2022-09-06T20:52:45.790Z,100.00
2022-09-06T20:55:12.338Z,100.00
2022-09-06T20:57:38.983Z,100.00
2022-09-06T21:00:05.902Z,100.00
2022-09-06T21:02:32.556Z,100.00
2022-09-06T21:05:00.464Z,100.00
2022-09-06T21:07:27.452Z,100.00
2022-09-06T21:09:58.387Z,100.00
2022-09-06T21:12:25.090Z,100.00
2022-09-06T21:14:51.615Z,100.00
2022-09-06T21:17:18.213Z,100.00
2022-09-06T21:19:44.977Z,100.00
2022-09-06T21:22:12.004Z,100.00
2022-09-06T21:24:38.520Z,100.00
2022-09-06T21:27:06.803Z,100.00
2022-09-06T21:29:33.420Z,100.00
2022-09-06T21:32:00.061Z,100.00
2022-09-06T21:34:26.695Z,100.00
2022-09-06T21:36:53.257Z,100.00
2022-09-06T21:39:19.854Z,100.00
2022-09-06T21:41:46.518Z,100.00
2022-09-06T21:44:13.452Z,100.00
2022-09-06T21:46:40.937Z,100.00
2022-09-06T21:49:12.768Z,100.00
2022-09-06T21:51:40.139Z,100.00
2022-09-06T21:54:07.411Z,100.00
2022-09-06T21:56:35.943Z,100.00
2022-09-06T21:59:04.175Z,100.00
2022-09-06T22:01:32.601Z,100.00
2022-09-06T22:04:00.164Z,100.00
2022-09-06T22:06:29.113Z,100.00
2022-09-06T22:08:58.657Z,100.00
2022-09-06T22:11:28.201Z,100.00
2022-09-06T22:13:59.069Z,100.00
2022-09-06T22:16:29.471Z,100.00
2022-09-06T22:18:56.420Z,100.00
2022-09-06T22:21:23.235Z,100.00
2022-09-06T22:23:51.585Z,100.00
2022-09-06T22:26:18.900Z,100.00
2022-09-06T22:28:45.674Z,100.00
2022-09-06T22:31:12.245Z,100.00
2022-09-06T22:33:39.155Z,100.00
2022-09-06T22:36:06.479Z,100.00
2022-09-06T22:38:33.450Z,100.00
2022-09-06T22:41:00.008Z,100.00
2022-09-06T22:43:26.870Z,100.00
2022-09-06T22:45:53.661Z,100.00
2022-09-06T22:48:20.264Z,100.00
2022-09-06T22:50:46.821Z,100.00
2022-09-06T22:53:13.394Z,100.00
2022-09-06T22:55:40.137Z,100.00
2022-09-06T22:58:06.724Z,100.00
2022-09-06T23:00:36.051Z,100.00
2022-09-06T23:03:02.904Z,100.00
2022-09-06T23:05:31.355Z,100.00
2022-09-06T23:08:00.208Z,100.00
2022-09-06T23:10:27.492Z,100.00
2022-09-06T23:12:54.633Z,100.00
2022-09-06T23:15:22.005Z,100.00
2022-09-06T23:17:48.669Z,100.00
2022-09-06T23:20:15.336Z,100.00
2022-09-06T23:22:42.068Z,100.00
2022-09-06T23:25:09.483Z,100.00
2022-09-06T23:27:36.673Z,100.00
2022-09-06T23:30:05.420Z,100.00
2022-09-06T23:32:33.193Z,100.00
2022-09-06T23:34:59.851Z,100.00
2022-09-06T23:37:26.470Z,100.00
2022-09-06T23:39:53.161Z,100.00
2022-09-06T23:42:21.042Z,100.00
2022-09-06T23:44:47.639Z,100.00
2022-09-06T23:47:14.479Z,100.00
2022-09-06T23:49:41.242Z,100.00
2022-09-06T23:52:10.854Z,100.00
2022-09-06T23:54:37.588Z,100.00
2022-09-06T23:57:04.283Z,100.00
2022-09-06T23:59:30.973Z,100.00
